Content
SEND FEEDBACK

Daily
Averages
Monthly
Summary
Isle of Man

DOUGLAS, ISLE OF MAN


Home > Europe > Isle of Man
Elevation: 17 meters     Latitude: 54 05N     Longitude: 004 38W

WEATHER
 
SELECT A DAY
Number of Records: 288,058;   Date Range: 7/1/96 - 12/27/14
 
SHARE

PRINT THIS DATA

[ ← Previous Day ]
WEATHER ALMANAC - 31 JANUARY, 2013
[ Next Day → ]
[ °F ]   °C
Weather ElementAverageHighLow
Temperature7.9 °C9 °C (3:50 am)7 °C (9:20 am)
Dewpoint2.7 °C7.2 °C (2:50 am)1 °C (11:20 am)
Humidity68.6 %96 % (2:50 am)55 % (11:50 am)
Barometer1001.7 hPa1005.1 hPa (8:50 pm)997 hPa (4:50 am)
Wind Speed46.3 km/h61.2 km/h (6:20 am)
Wind Gust90.8 km/h (6:20 am)
Weather ElementAverage
Visibility12.4 km
Wind DirectionWSW (246.7 °)

Weather ElementTotal
Precipitation---
Heating Degree Days10.3 (Base 18.3)
Averaged from 48 records on 31 January, 2013
WEATHER CONDITIONS BREAKOUT
WIND DIRECTION BREAKOUT
WEATHER BY HOUR - 31 JANUARY, 2013
[ °F ]   °C
Local TimeTemperatureDewpointHumidityBarometerVisibilityWind DirectionWind SpeedGust SpeedPrecipitationEventsConditions
1:50 AM8 °C6 °C87 %1001 hPa3.1 kmSouth (170°)48.1 km/hRainHeavy Rain
2:50 AM7.8 °C7.2 °C96 %999.7 hPa11.3 kmSSW (200°)48.1 km/hRainLight Rain
2:50 AM8 °C7 °C93 %999 hPa10 kmSSW (200°)48.1 km/h68.6 km/hOvercast
3:50 AM9 °C3 °C66 %998 hPa10 kmSW (230°)50.1 km/h68.6 km/hMostly Cloudy
4:50 AM9 °C2 °C62 %997 hPa10 kmWSW (240°)48.1 km/h66.6 km/hMostly Cloudy
5:20 AM8 °C3 °C71 %997 hPa10 kmWSW (240°)50.1 km/h74 km/hMostly Cloudy
5:50 AM8 °C2 °C66 %997 hPa10 kmWSW (240°)51.8 km/h72.3 km/hMostly Cloudy
5:50 AM7.8 °C2.2 °C58 %997.6 hPa40.2 kmWSW (240°)51.8 km/hPartly Cloudy
6:20 AM8 °C2 °C66 %997 hPa10 kmWSW (240°)61.2 km/h90.8 km/hScattered Clouds
6:50 AM8 °C2 °C66 %997 hPa10 kmWSW (240°)57.5 km/h79.7 km/hScattered Clouds
7:20 AM8 °C2 °C66 %997 hPa10 kmWSW (250°)51.8 km/h74 km/hScattered Clouds
7:50 AM8 °C2 °C66 %998 hPa10 kmWSW (250°)57.5 km/h85.1 km/hScattered Clouds
8:20 AM8 °C2 °C66 %999 hPa10 kmWSW (250°)55.5 km/h83.4 km/hPartly Cloudy
8:50 AM7.8 °C1.7 °C56 %19.3 kmWSW (250°)51.8 km/hScattered Clouds
8:50 AM8 °C2 °C66 %999 hPa10 kmWSW (250°)51.8 km/h72.3 km/hPartly Cloudy
9:20 AM7 °C2 °C71 %1000 hPa10 kmWSW (250°)53.8 km/h77.7 km/hPartly Cloudy
9:50 AM7 °C2 °C71 %1001 hPa10 kmWest (260°)55.5 km/h76 km/hPartly Cloudy
10:20 AM8 °C3 °C71 %1001 hPa10 kmWest (260°)50.1 km/hPartly Cloudy
10:50 AM8 °C2 °C66 %1002 hPa10 kmWest (260°)46.3 km/h68.6 km/hPartly Cloudy
11:20 AM8 °C1 °C62 %1002 hPa10 kmWest (260°)50.1 km/h68.6 km/hPartly Cloudy
11:50 AM8.3 °C2.2 °C55 %1003.4 hPa30.6 kmWest (260°)48.1 km/hScattered Clouds
11:50 AM8 °C2 °C66 %1003 hPa10 kmWest (260°)48.1 km/h74 km/hPartly Cloudy
12:20 PM8 °C2 °C66 %1003 hPa10 kmWest (260°)51.8 km/h70.3 km/hPartly Cloudy
12:50 PM8 °C3 °C71 %1003 hPa10 kmWSW (250°)46.3 km/hScattered Clouds
1:20 PM9 °C3 °C66 %1003 hPa10 kmWSW (250°)44.4 km/hScattered Clouds
1:50 PM9 °C3 °C66 %1003 hPa10 kmWest (260°)48.1 km/hPartly Cloudy
2:20 PM9 °C3 °C66 %1003 hPa10 kmWest (260°)40.7 km/h59.2 km/hPartly Cloudy
2:50 PM8.9 °C2.8 °C57 %1003.4 hPa14.5 kmWSW (250°)51.8 km/hPartly Cloudy
2:50 PM9 °C3 °C66 %1003 hPa10 kmWSW (250°)51.8 km/hScattered Clouds
3:20 PM9 °C3 °C66 %1003 hPa10 kmWest (260°)48.1 km/h68.6 km/hPartly Cloudy
3:50 PM9 °C2 °C62 %1003 hPa10 kmWSW (250°)50.1 km/h68.6 km/hPartly Cloudy
4:20 PM8 °C4 °C76 %1003 hPa10 kmWSW (250°)42.6 km/hPartly Cloudy
4:50 PM8 °C3 °C71 %1004.1 hPa10 kmWSW (250°)44.4 km/hPartly Cloudy
5:20 PM8 °C2 °C66 %1004.1 hPa10 kmWSW (250°)46.3 km/hPartly Cloudy
5:50 PM7.8 °C1.7 °C56 %1004.7 hPa25.7 kmWSW (250°)38.9 km/hScattered Clouds
5:50 PM8 °C2 °C66 %1004.1 hPa10 kmWSW (250°)38.9 km/h57.5 km/hPartly Cloudy
6:20 PM8 °C2 °C66 %1004.1 hPa10 kmWSW (250°)42.6 km/hPartly Cloudy
6:50 PM7 °C2 °C71 %1004.1 hPa10 kmWSW (250°)37 km/h55.5 km/hPartly Cloudy
7:20 PM7 °C2 °C71 %1004.1 hPa10 kmWSW (250°)38.9 km/h57.5 km/hPartly Cloudy
7:50 PM7 °C3 °C76 %1004.1 hPa10 kmWSW (250°)35.2 km/hPartly Cloudy
8:20 PM8 °C3 °C71 %1004.1 hPa10 kmWSW (250°)37 km/hPartly Cloudy
8:50 PM7 °C3 °C76 %1005.1 hPa10 kmWSW (250°)35.2 km/h55.5 km/hPartly Cloudy
8:50 PM7.2 °C2.8 °C65 %1005.1 hPa30.6 kmWSW (250°)35.2 km/hScattered Clouds
9:20 PM7 °C3 °C76 %1004.1 hPa10 kmWSW (250°)37 km/hPartly Cloudy
9:50 PM7 °C2 °C71 %1004.1 hPa10 kmWSW (250°)37 km/hPartly Cloudy
10:50 PM7 °C3 °C76 %1004.1 hPa10 kmWSW (250°)37 km/h55.5 km/hPartly Cloudy
11:50 PM7.2 °C2.8 °C65 %1003.7 hPa30.6 kmWSW (250°)35.2 km/hScattered Clouds
11:50 PM7 °C3 °C76 %1003 hPa10 kmWSW (250°)35.2 km/h55.5 km/hPartly Cloudy
Hourly data recorded from EGNS, located 0 kilometers away from Douglas, Isle of Man







STORIES FROM OUR PARTNERS